Charleston Air Force Base, SC (29404)

10:41 PM EDT on August 31, 2015 (GMT -0400)
Park Circle | | Change Station
CLOSE
Current Station
Personal Weather Station
Location: North Charleston, SC
Elevation: 20 ft
Nearby Weather Stations

Elev 20 ft 32.89 °N, 79.99 °W | Updated 6 seconds ago

Rain
Rain
76.7 °F
Feels Like 77 °F
N
0.0
Wind Variable Wind from North
Gusts 0.0 mph

Today
High -- | Low -- °F
--% Chance of Precip.
Yesterday
High -- | Low -- °F
Precip. -- in
6:54 AM 7:46 PM
Waning Gibbous, 92% visible
Pressure 30.09 in
Visibility 10.0 miles
Clouds Few 3000 ft
Scattered Clouds 8000 ft
Heat Index 77 °F
Dew Point 75 °F
Humidity 95%
Rainfall 0.49 in
Snow Depth Not available.
UV 0 out of 12
Pollen .80 out of 12
Air Quality Not available.
Flu Activity Not available.
METAR KCHS 010156Z 00000KT 10SM FEW030 SCT080 25/23 A3009 RMK AO2 SLP187 T02500228
Pressure 30.09 in
Visibility 10.0 miles
Clouds Few 3000 ft
Scattered Clouds 8000 ft
Heat Index 77 °F
Dew Point 75 °F
Humidity 95%
Rainfall 0.49 in
Snow Depth Not available.
UV 0 out of 12
Pollen .80 out of 12
Air Quality Not available.
Flu Activity Not available.
METAR KCHS 010156Z 00000KT 10SM FEW030 SCT080 25/23 A3009 RMK AO2 SLP187 T02500228

10-Day Weather Forecast

×

Almanac

Astronomy

Aug. 31, 2015 Rise Set
Actual Time
Civil Twilight
Nautical Twilight
Astronomical Twilight
Moon
Length of Visible Light
Length of Day
Tomorrow will be .
, % of the Moon is Illuminated

Today's Extremes

State Highs State Lows

Community

WunderPhotos

Upload Photos

1,851,459 photos uploaded!

WunderBlogs® & News

Nearby

Air Quality

  Air Quality AQ Index Pollutant
Not available.

Snow Depth

Station Depth Elevation

Earthquake Activity

City Distance Mag. Time & Date
Minimum magnitude displayed is 2.5.

Coastal Water Temperatures

Place Temperature

Stations

Nearby Weather Stations

Station Location Temp. Windchill Dew Point Humidity Wind Precip. Elev Updated Type